createdAt,value
2023-04-16T00:02:41.059Z,100027.22
2023-04-16T00:05:45.729Z,100014.78
2023-04-16T00:08:51.208Z,100020.81
2023-04-16T00:11:55.807Z,100026.34
2023-04-16T00:15:00.050Z,100018.69
2023-04-16T00:18:04.528Z,100015.75
2023-04-16T00:21:09.197Z,100019.50
2023-04-16T00:24:13.866Z,100008.44
2023-04-16T00:27:18.380Z,100017.06
2023-04-16T00:30:22.494Z,100005.69
2023-04-16T00:33:26.339Z,100021.91
2023-04-16T00:36:30.556Z,100010.72
2023-04-16T00:39:34.464Z,100023.88
2023-04-16T00:42:50.446Z,100008.75
2023-04-16T00:45:58.427Z,100006.59
2023-04-16T00:49:04.630Z,100012.56
2023-04-16T00:52:09.055Z,100007.78
2023-04-16T00:55:14.287Z,100005.00
2023-04-16T00:58:19.703Z,99975.63
2023-04-16T01:01:24.969Z,99986.13
2023-04-16T01:04:31.717Z,99985.22
2023-04-16T01:07:35.796Z,99985.88
2023-04-16T01:10:40.297Z,99976.16
2023-04-16T01:13:44.448Z,99970.03
2023-04-16T01:16:48.360Z,99969.41
2023-04-16T01:19:52.680Z,99963.13
2023-04-16T01:22:56.840Z,99946.44
2023-04-16T01:26:02.323Z,99956.16
2023-04-16T01:29:06.546Z,99959.53
2023-04-16T01:32:10.903Z,99906.25
2023-04-16T01:35:19.189Z,99956.69
2023-04-16T01:38:23.265Z,99936.41
2023-04-16T01:41:27.846Z,99932.69
2023-04-16T01:44:34.178Z,99926.00
2023-04-16T01:47:38.727Z,99928.09
2023-04-16T01:50:43.351Z,99925.59
2023-04-16T01:53:47.591Z,99940.25
2023-04-16T01:56:52.117Z,99929.69
2023-04-16T01:59:56.471Z,99917.34
2023-04-16T02:03:00.574Z,99905.09
2023-04-16T02:06:06.440Z,99919.44
2023-04-16T02:09:13.473Z,99909.56
2023-04-16T02:12:18.384Z,99916.19
2023-04-16T02:15:25.932Z,99912.41
2023-04-16T02:18:31.674Z,99897.06
2023-04-16T02:21:36.663Z,99851.19
2023-04-16T02:24:41.775Z,99879.09
2023-04-16T02:27:47.257Z,99878.75
2023-04-16T02:31:01.868Z,99867.50
2023-04-16T02:34:13.594Z,99851.41
2023-04-16T02:37:18.116Z,99860.31
2023-04-16T02:40:22.641Z,99861.66
2023-04-16T02:43:26.764Z,99857.28
2023-04-16T02:46:30.922Z,99849.19
2023-04-16T02:49:36.559Z,99845.22
2023-04-16T02:52:40.759Z,99842.69
2023-04-16T02:55:55.222Z,99835.59
2023-04-16T02:59:01.266Z,99838.44
2023-04-16T03:02:06.146Z,99831.94
2023-04-16T03:05:11.523Z,99837.72
2023-04-16T03:08:16.373Z,99830.69
2023-04-16T03:11:21.049Z,99817.53
2023-04-16T03:14:25.489Z,99798.72
2023-04-16T03:17:30.386Z,99777.06
2023-04-16T03:20:34.761Z,99804.69
2023-04-16T03:23:40.603Z,99814.47
2023-04-16T03:26:44.948Z,99788.78
2023-04-16T03:29:50.001Z,99763.19
2023-04-16T03:32:54.131Z,99798.88
2023-04-16T03:35:59.191Z,99805.41
2023-04-16T03:39:07.194Z,99788.31
2023-04-16T03:42:14.291Z,99778.88
2023-04-16T03:45:18.584Z,99779.72
2023-04-16T03:48:25.583Z,99780.34
2023-04-16T03:51:30.958Z,99757.00
2023-04-16T03:54:35.293Z,99767.28
2023-04-16T03:57:51.692Z,99745.53
2023-04-16T04:00:58.687Z,99765.13
2023-04-16T04:04:03.565Z,99751.38
2023-04-16T04:07:07.902Z,99761.59
2023-04-16T04:10:12.315Z,99734.41
2023-04-16T04:13:18.971Z,99747.38
2023-04-16T04:16:25.062Z,99756.19
2023-04-16T04:19:29.430Z,99737.09
2023-04-16T04:22:36.177Z,99749.31
2023-04-16T04:25:40.543Z,99751.22
2023-04-16T04:28:45.529Z,99739.34
2023-04-16T04:31:49.463Z,99733.69
2023-04-16T04:34:53.786Z,99743.28
2023-04-16T04:37:58.531Z,99735.81
2023-04-16T04:41:04.039Z,99741.94
2023-04-16T04:44:12.858Z,99713.63
2023-04-16T04:47:18.295Z,99732.28
2023-04-16T04:50:22.891Z,99735.09
2023-04-16T04:53:27.139Z,99743.03
2023-04-16T04:56:32.404Z,99731.91
2023-04-16T04:59:37.261Z,99723.34
2023-04-16T05:02:41.871Z,99699.88
2023-04-16T05:05:46.653Z,99720.88
2023-04-16T05:08:51.225Z,99715.97
2023-04-16T05:11:55.700Z,99696.84
2023-04-16T05:14:59.778Z,99706.25
2023-04-16T05:18:04.189Z,99708.13
2023-04-16T05:21:08.267Z,99692.13
2023-04-16T05:24:14.780Z,99683.72
2023-04-16T05:27:19.495Z,99707.19
2023-04-16T05:30:24.294Z,99706.91
2023-04-16T05:33:28.300Z,99699.72
2023-04-16T05:36:32.760Z,99689.16
2023-04-16T05:39:37.300Z,99710.50
2023-04-16T05:42:43.792Z,99705.13
2023-04-16T05:45:48.787Z,99699.16
2023-04-16T05:48:53.227Z,99692.59
2023-04-16T05:51:57.296Z,99689.63
2023-04-16T05:55:03.796Z,99694.94
2023-04-16T05:58:07.999Z,99647.31
2023-04-16T06:01:12.863Z,99658.81
2023-04-16T06:04:18.606Z,99687.88
2023-04-16T06:07:23.260Z,99683.16
2023-04-16T06:10:27.800Z,99694.09
2023-04-16T06:13:32.422Z,99660.41
2023-04-16T06:16:36.702Z,99689.16
2023-04-16T06:19:41.644Z,99671.03
2023-04-16T06:22:45.816Z,99642.19
2023-04-16T06:25:50.256Z,99694.78
2023-04-16T06:28:54.623Z,99686.59
2023-04-16T06:31:59.103Z,99686.09
2023-04-16T06:35:03.757Z,99677.34
2023-04-16T06:38:08.209Z,99690.53
2023-04-16T06:41:12.576Z,99689.16
2023-04-16T06:44:20.767Z,99692.88
2023-04-16T06:47:25.364Z,99683.66
2023-04-16T06:50:29.817Z,99693.13
2023-04-16T06:53:34.487Z,99678.56
2023-04-16T06:56:38.919Z,99640.34
2023-04-16T06:59:43.729Z,99686.38
2023-04-16T07:02:48.684Z,99689.50
2023-04-16T07:05:53.365Z,99684.03
2023-04-16T07:08:58.957Z,99694.63
2023-04-16T07:12:04.876Z,99696.06
2023-04-16T07:15:12.403Z,99699.16
2023-04-16T07:18:18.376Z,99698.19
2023-04-16T07:21:24.075Z,99697.03
2023-04-16T07:24:29.024Z,99688.94
2023-04-16T07:27:33.622Z,99683.50
2023-04-16T07:30:38.441Z,99691.09
2023-04-16T07:33:43.179Z,99703.91
2023-04-16T07:36:47.741Z,99657.19
2023-04-16T07:39:54.112Z,99675.44
2023-04-16T07:42:59.614Z,99694.94
2023-04-16T07:46:04.130Z,99698.34
2023-04-16T07:49:08.801Z,99691.59
2023-04-16T07:52:13.957Z,99692.00
2023-04-16T07:55:18.146Z,99710.22
2023-04-16T07:58:22.482Z,99696.22
2023-04-16T08:01:27.142Z,99713.03
2023-04-16T08:04:31.908Z,99697.63
2023-04-16T08:07:36.799Z,99659.22
2023-04-16T08:10:41.589Z,99712.66
2023-04-16T08:13:46.205Z,99714.59
2023-04-16T08:16:51.164Z,99716.81
2023-04-16T08:19:55.770Z,99707.34
2023-04-16T08:23:00.477Z,99700.16
2023-04-16T08:26:04.937Z,99724.47
2023-04-16T08:29:09.582Z,99727.31
2023-04-16T08:32:14.712Z,99731.97
2023-04-16T08:35:19.420Z,99733.56
2023-04-16T08:38:23.492Z,99725.50
2023-04-16T08:41:30.745Z,99742.38
2023-04-16T08:44:45.456Z,99739.06
2023-04-16T08:47:52.523Z,99743.22
2023-04-16T08:50:57.715Z,99749.19
2023-04-16T08:54:06.708Z,99745.41
2023-04-16T08:57:13.773Z,99746.22
2023-04-16T09:00:20.841Z,99713.94
2023-04-16T09:03:26.114Z,99744.44
2023-04-16T09:06:30.716Z,99750.94
2023-04-16T09:09:34.707Z,99736.97
2023-04-16T09:12:39.507Z,99757.00
2023-04-16T09:15:45.247Z,99757.09
2023-04-16T09:18:49.409Z,99753.16
2023-04-16T09:21:53.695Z,99771.09
2023-04-16T09:24:58.181Z,99759.38
2023-04-16T09:28:02.724Z,99763.66
2023-04-16T09:31:20.280Z,99767.56
2023-04-16T09:34:25.920Z,99770.53
2023-04-16T09:37:32.312Z,99766.59
2023-04-16T09:40:37.463Z,99772.38
2023-04-16T09:43:42.070Z,99775.38
2023-04-16T09:46:46.700Z,99774.84
2023-04-16T09:49:50.799Z,99775.56
2023-04-16T09:52:54.886Z,99780.28
2023-04-16T09:56:07.878Z,99795.03
2023-04-16T09:59:19.605Z,99758.06
2023-04-16T10:02:28.452Z,99782.03
2023-04-16T10:05:32.887Z,99807.00
2023-04-16T10:08:37.534Z,99804.44
2023-04-16T10:11:41.953Z,99814.44
2023-04-16T10:14:48.266Z,99799.88
2023-04-16T10:17:56.065Z,99805.41
2023-04-16T10:21:01.336Z,99807.34
2023-04-16T10:24:06.376Z,99824.91
2023-04-16T10:27:10.402Z,99838.25
2023-04-16T10:30:16.729Z,99844.84
2023-04-16T10:33:29.794Z,99826.13
2023-04-16T10:36:38.707Z,99833.09
2023-04-16T10:39:42.773Z,99841.94
2023-04-16T10:42:59.147Z,99813.03
2023-04-16T10:46:24.388Z,99853.97
2023-04-16T10:49:28.545Z,99824.91
2023-04-16T10:52:33.045Z,99833.66
2023-04-16T10:55:40.261Z,99828.31
2023-04-16T10:58:44.216Z,99869.66
2023-04-16T11:01:54.558Z,99873.25
2023-04-16T11:04:59.766Z,99869.97
2023-04-16T11:08:15.546Z,99876.69
2023-04-16T11:11:22.440Z,99892.72
2023-04-16T11:14:27.034Z,99887.72
2023-04-16T11:17:39.867Z,99902.72
2023-04-16T11:20:44.331Z,99900.97
2023-04-16T11:23:50.340Z,99890.78
2023-04-16T11:26:54.476Z,99909.03
2023-04-16T11:30:05.979Z,99910.03
2023-04-16T11:33:14.910Z,99918.50
2023-04-16T11:36:19.672Z,99918.94
2023-04-16T11:39:24.987Z,99917.09
2023-04-16T11:42:30.267Z,99918.91
2023-04-16T11:45:34.863Z,99910.19
2023-04-16T11:48:52.003Z,99924.09
2023-04-16T11:51:57.070Z,99910.91
2023-04-16T11:55:01.134Z,99894.81
2023-04-16T11:58:19.853Z,99929.47
2023-04-16T12:01:25.286Z,99932.19
2023-04-16T12:04:30.338Z,99882.72
2023-04-16T12:07:46.827Z,99946.50
2023-04-16T12:10:57.563Z,99944.06
2023-04-16T12:14:12.760Z,99947.66
2023-04-16T12:17:23.139Z,99953.44
2023-04-16T12:20:27.506Z,99944.44
2023-04-16T12:23:34.798Z,99907.13
2023-04-16T12:26:43.638Z,99962.13
2023-04-16T12:30:05.040Z,99971.53
2023-04-16T12:33:21.952Z,99946.63
2023-04-16T12:36:27.095Z,99975.19
2023-04-16T12:39:31.883Z,99964.69
2023-04-16T12:42:38.349Z,99950.69
2023-04-16T12:45:42.823Z,99959.25
2023-04-16T12:48:47.013Z,99954.69
2023-04-16T12:51:50.841Z,99958.28
2023-04-16T12:54:54.931Z,99976.81
2023-04-16T12:57:59.448Z,99985.44
2023-04-16T13:01:05.347Z,99974.88
2023-04-16T13:04:10.295Z,99979.38
2023-04-16T13:07:14.746Z,99975.66
2023-04-16T13:10:19.489Z,99970.56
2023-04-16T13:13:23.748Z,99920.06
2023-04-16T13:16:28.290Z,99971.09
2023-04-16T13:19:33.106Z,99951.13
2023-04-16T13:22:37.828Z,99982.22
2023-04-16T13:25:42.305Z,99945.59
2023-04-16T13:28:46.232Z,99970.75
2023-04-16T13:31:50.998Z,99963.03
2023-04-16T13:34:55.130Z,99972.75
2023-04-16T13:41:22.818Z,99957.94
2023-04-16T13:44:27.392Z,99974.59
2023-04-16T13:47:32.423Z,99979.94
2023-04-16T13:50:37.015Z,99936.44
2023-04-16T13:53:41.667Z,99968.75
2023-04-16T13:56:46.279Z,99969.44
2023-04-16T13:59:50.287Z,99982.53
2023-04-16T14:02:55.318Z,99963.38
2023-04-16T14:05:59.907Z,99958.97
2023-04-16T14:09:05.097Z,99985.06
2023-04-16T14:12:10.032Z,99993.00
2023-04-16T14:15:15.470Z,99979.16
2023-04-16T14:18:19.708Z,99983.78
2023-04-16T14:21:24.115Z,99994.88
2023-04-16T14:24:28.229Z,99998.34
2023-04-16T14:27:33.369Z,100004.47
2023-04-16T14:30:37.850Z,99978.63
2023-04-16T14:33:42.506Z,99990.81
2023-04-16T14:36:47.325Z,99989.06
2023-04-16T14:39:51.912Z,99989.19
2023-04-16T14:42:56.396Z,100013.63
2023-04-16T14:46:01.065Z,100022.50
2023-04-16T14:49:06.541Z,100020.03
2023-04-16T14:52:10.852Z,100019.16
2023-04-16T14:55:15.550Z,100012.28
2023-04-16T14:58:20.270Z,100028.78
2023-04-16T15:01:24.627Z,100027.03
2023-04-16T15:04:29.392Z,100028.38
2023-04-16T15:07:33.930Z,100032.81
2023-04-16T15:10:38.950Z,100033.56
2023-04-16T15:13:43.436Z,100038.81
2023-04-16T15:16:49.397Z,100050.41
2023-04-16T15:19:56.022Z,100041.06
2023-04-16T15:23:00.059Z,100043.81
2023-04-16T15:26:04.677Z,100047.13
2023-04-16T15:29:09.358Z,100051.34
2023-04-16T15:32:13.728Z,100053.25
2023-04-16T15:35:18.286Z,100049.22
2023-04-16T15:38:22.906Z,100058.81
2023-04-16T15:41:32.633Z,100036.94
2023-04-16T15:44:37.272Z,100062.50
2023-04-16T15:47:42.407Z,100056.25
2023-04-16T15:50:47.268Z,100057.22
2023-04-16T15:53:51.895Z,100057.28
2023-04-16T15:56:56.654Z,100066.97
2023-04-16T16:00:06.994Z,100057.56
2023-04-16T16:03:12.266Z,100044.56
2023-04-16T16:06:18.637Z,100035.94
2023-04-16T16:09:27.162Z,100061.25
2023-04-16T16:12:32.131Z,100053.59
2023-04-16T16:15:36.621Z,100066.75
2023-04-16T16:18:42.895Z,100023.03
2023-04-16T16:21:46.890Z,100063.31
2023-04-16T16:24:52.630Z,100089.44
2023-04-16T16:27:56.807Z,100101.00
2023-04-16T16:31:02.304Z,100069.41
2023-04-16T16:34:06.799Z,100085.16
2023-04-16T16:37:11.628Z,100094.09
2023-04-16T16:40:16.481Z,100083.50
2023-04-16T16:43:21.495Z,100088.00
2023-04-16T16:46:26.022Z,100106.25
2023-04-16T16:49:30.532Z,100117.66
2023-04-16T16:52:35.184Z,100117.69
2023-04-16T16:55:39.727Z,100117.91
2023-04-16T16:58:44.048Z,100119.72
2023-04-16T17:01:48.480Z,100127.66
2023-04-16T17:04:53.619Z,100142.66
2023-04-16T17:07:58.113Z,100149.69
2023-04-16T17:11:06.373Z,100151.38
2023-04-16T17:14:10.461Z,100144.44
2023-04-16T17:17:15.005Z,100159.28
2023-04-16T17:20:19.429Z,100149.69
2023-04-16T17:23:24.192Z,100157.56
2023-04-16T17:26:28.767Z,100163.63
2023-04-16T17:29:33.097Z,100142.66
2023-04-16T17:32:37.872Z,100158.41
2023-04-16T17:35:42.694Z,100158.31
2023-04-16T17:38:47.286Z,100133.78
2023-04-16T17:41:55.084Z,100169.56
2023-04-16T17:44:59.617Z,100162.59
2023-04-16T17:48:04.121Z,100161.84
2023-04-16T17:51:13.645Z,100190.56
2023-04-16T17:54:18.115Z,100184.53
2023-04-16T17:57:22.605Z,100141.66
2023-04-16T18:00:27.550Z,100158.28
2023-04-16T18:03:33.877Z,100194.09
2023-04-16T18:06:40.672Z,100198.38
2023-04-16T18:09:45.290Z,100211.59
2023-04-16T18:12:52.828Z,100211.56
2023-04-16T18:15:56.909Z,100211.59
2023-04-16T18:19:01.304Z,100194.13
2023-04-16T18:22:05.646Z,100219.50
2023-04-16T18:25:10.273Z,100222.88
2023-04-16T18:28:15.144Z,100228.13
2023-04-16T18:31:21.262Z,100222.03
2023-04-16T18:34:26.724Z,100219.22
2023-04-16T18:37:31.393Z,100208.75
2023-04-16T18:40:37.291Z,100205.34
2023-04-16T18:43:42.048Z,100234.31
2023-04-16T18:46:47.209Z,100228.94
2023-04-16T18:49:52.177Z,100237.72
2023-04-16T18:52:56.762Z,100223.66
2023-04-16T18:56:01.861Z,100250.66
2023-04-16T18:59:05.828Z,100266.31
2023-04-16T19:02:09.755Z,100215.66
2023-04-16T19:05:14.145Z,100220.84
2023-04-16T19:08:18.687Z,100233.69
2023-04-16T19:11:22.830Z,100246.78
2023-04-16T19:14:26.709Z,100263.56
2023-04-16T19:17:31.222Z,100275.47
2023-04-16T19:20:36.477Z,100256.38
2023-04-16T19:23:40.732Z,100267.59
2023-04-16T19:26:45.161Z,100253.34
2023-04-16T19:29:49.777Z,100283.28
2023-04-16T19:32:55.549Z,100282.34
2023-04-16T19:35:59.750Z,100227.25
2023-04-16T19:39:04.605Z,100273.72
2023-04-16T19:42:08.932Z,100273.00
2023-04-16T19:45:13.573Z,100296.66
2023-04-16T19:48:18.246Z,100295.78
2023-04-16T19:51:22.715Z,100295.72
2023-04-16T19:54:27.954Z,100298.19
2023-04-16T19:57:32.337Z,100269.97
2023-04-16T20:00:44.036Z,100335.28
2023-04-16T20:03:48.715Z,100323.88
2023-04-16T20:06:53.750Z,100318.44
2023-04-16T20:09:58.418Z,100316.53
2023-04-16T20:13:02.825Z,100310.94
2023-04-16T20:16:10.108Z,100329.09
2023-04-16T20:19:17.373Z,100332.34
2023-04-16T20:22:21.927Z,100334.19
2023-04-16T20:25:27.042Z,100342.06
2023-04-16T20:28:31.446Z,100346.38
2023-04-16T20:31:35.973Z,100364.72
2023-04-16T20:34:41.196Z,100368.22
2023-04-16T20:37:45.785Z,100335.56
2023-04-16T20:41:07.038Z,100401.69
2023-04-16T20:44:18.828Z,100386.81
2023-04-16T20:47:24.008Z,100407.78
2023-04-16T20:50:28.079Z,100416.47
2023-04-16T20:53:34.009Z,100430.41
2023-04-16T20:56:38.456Z,100437.34
2023-04-16T20:59:42.747Z,100441.03
2023-04-16T21:02:47.355Z,100426.31
2023-04-16T21:05:56.411Z,100439.44
2023-04-16T21:09:01.150Z,100457.81
2023-04-16T21:12:06.365Z,100463.03
2023-04-16T21:15:11.028Z,100474.69
2023-04-16T21:18:15.469Z,100479.94
2023-04-16T21:21:20.794Z,100453.78
2023-04-16T21:24:25.167Z,100483.47
2023-04-16T21:27:29.815Z,100490.63
2023-04-16T21:30:34.303Z,100482.81
2023-04-16T21:33:38.896Z,100510.84
2023-04-16T21:36:42.881Z,100486.66
2023-04-16T21:39:48.824Z,100516.78
2023-04-16T21:42:53.394Z,100452.41
2023-04-16T21:45:57.984Z,100477.97
2023-04-16T21:49:02.574Z,100505.47
2023-04-16T21:52:06.691Z,100518.84
2023-04-16T21:55:10.759Z,100526.75
2023-04-16T21:58:15.206Z,100532.00
2023-04-16T22:01:22.528Z,100533.81
2023-04-16T22:04:37.784Z,100505.78
2023-04-16T22:07:42.500Z,100537.31
2023-04-16T22:10:46.640Z,100530.31
2023-04-16T22:13:51.086Z,100546.06
2023-04-16T22:16:55.810Z,100543.41
2023-04-16T22:20:01.416Z,100531.09
2023-04-16T22:23:07.317Z,100569.22
2023-04-16T22:26:13.605Z,100559.03
2023-04-16T22:29:18.158Z,100551.16
2023-04-16T22:32:22.951Z,100553.38
2023-04-16T22:35:27.072Z,100554.31
2023-04-16T22:38:31.180Z,100553.25
2023-04-16T22:41:36.834Z,100558.44
2023-04-16T22:44:41.358Z,100552.16
2023-04-16T22:47:46.046Z,100563.97
2023-04-16T22:50:51.809Z,100556.78
2023-04-16T22:53:55.844Z,100566.84
2023-04-16T22:57:00.105Z,100546.03
2023-04-16T23:03:23.802Z,100574.81
2023-04-16T23:06:28.216Z,100558.31
2023-04-16T23:09:33.714Z,100578.75
2023-04-16T23:12:38.148Z,100576.88
2023-04-16T23:15:44.465Z,100592.94
2023-04-16T23:18:49.054Z,100593.09
2023-04-16T23:21:53.570Z,100581.03
2023-04-16T23:24:58.090Z,100585.06
2023-04-16T23:28:02.885Z,100597.59
2023-04-16T23:31:07.720Z,100561.38
2023-04-16T23:34:12.257Z,100584.03
2023-04-16T23:37:16.811Z,100581.28
2023-04-16T23:40:21.531Z,100594.25
2023-04-16T23:43:26.191Z,100584.00
2023-04-16T23:46:30.223Z,100579.97
2023-04-16T23:49:34.581Z,100596.75
2023-04-16T23:52:39.253Z,100609.91
2023-04-16T23:55:43.977Z,100626.72
2023-04-16T23:58:48.489Z,100623.81
